createdAt,value
2019-03-18T00:00:32.982Z,100200.50
2019-03-18T00:03:02.551Z,100194.36
2019-03-18T00:05:32.112Z,100206.56
2019-03-18T00:08:01.600Z,100208.50
2019-03-18T00:10:31.158Z,100214.81
2019-03-18T00:13:00.640Z,100214.50
2019-03-18T00:15:30.139Z,100216.63
2019-03-18T00:17:59.652Z,100204.48
2019-03-18T00:20:29.149Z,100203.31
2019-03-18T00:22:58.647Z,100203.50
2019-03-18T00:25:28.152Z,100208.11
2019-03-18T00:27:57.719Z,100206.50
2019-03-18T00:30:27.228Z,100212.80
2019-03-18T00:32:56.733Z,100212.28
2019-03-18T00:35:26.251Z,100216.95
2019-03-18T00:37:55.748Z,100216.28
2019-03-18T00:40:25.350Z,100221.23
2019-03-18T00:42:54.851Z,100226.38
2019-03-18T00:45:24.366Z,100229.66
2019-03-18T00:47:53.937Z,100227.55
2019-03-18T00:50:23.439Z,100228.80
2019-03-18T00:52:52.938Z,100232.53
2019-03-18T00:55:22.451Z,100238.48
2019-03-18T00:57:51.938Z,100243.17
2019-03-18T01:00:21.446Z,100236.47
2019-03-18T01:02:50.947Z,100231.69
2019-03-18T01:05:20.461Z,100238.45
2019-03-18T01:07:49.963Z,100231.61
2019-03-18T01:10:19.483Z,100228.27
2019-03-18T01:12:50.034Z,100236.72
2019-03-18T01:15:28.102Z,100228.65
2019-03-18T01:17:51.884Z,100229.11
2019-03-18T01:20:21.395Z,100225.94
2019-03-18T01:22:50.959Z,100226.45
2019-03-18T01:25:20.474Z,100232.23
2019-03-18T01:27:49.977Z,100226.32
2019-03-18T01:30:19.507Z,100232.03
2019-03-18T01:32:49.006Z,100239.86
2019-03-18T01:35:18.516Z,100257.63
2019-03-18T01:37:48.013Z,100252.98
2019-03-18T01:40:17.531Z,100237.14
2019-03-18T01:42:47.042Z,100235.75
2019-03-18T01:45:16.708Z,100239.69
2019-03-18T01:47:46.188Z,100236.83
2019-03-18T01:50:15.849Z,100237.02
2019-03-18T01:52:45.359Z,100252.27
2019-03-18T01:55:14.878Z,100247.86
2019-03-18T01:57:44.381Z,100245.73
2019-03-18T02:00:13.899Z,100248.62
2019-03-18T02:02:43.413Z,100247.32
2019-03-18T02:05:12.919Z,100233.66
2019-03-18T02:07:42.421Z,100244.31
2019-03-18T02:10:13.049Z,100245.88
2019-03-18T02:12:42.550Z,100243.84
2019-03-18T02:15:12.280Z,100255.36
2019-03-18T02:17:41.743Z,100257.78
2019-03-18T02:20:11.919Z,100261.55
2019-03-18T02:22:42.404Z,100257.78
2019-03-18T02:25:12.088Z,100259.37
2019-03-18T02:27:41.575Z,100263.98
2019-03-18T02:30:11.266Z,100261.66
2019-03-18T02:32:40.784Z,100264.48
2019-03-18T02:35:10.362Z,100258.95
2019-03-18T02:37:40.831Z,100262.27
2019-03-18T02:40:10.573Z,100254.19
2019-03-18T02:42:40.110Z,100272.10
2019-03-18T02:45:09.698Z,100263.09
2019-03-18T02:47:39.377Z,100276.59
2019-03-18T02:50:09.110Z,100284.50
2019-03-18T02:52:38.629Z,100280.26
2019-03-18T02:55:08.171Z,100274.48
2019-03-18T02:57:37.757Z,100279.24
2019-03-18T03:00:09.196Z,100271.81
2019-03-18T03:02:38.701Z,100281.82
2019-03-18T03:05:08.316Z,100280.34
2019-03-18T03:07:37.825Z,100283.38
2019-03-18T03:10:07.532Z,100285.47
2019-03-18T03:12:37.040Z,100304.61
2019-03-18T03:15:07.023Z,100299.95
2019-03-18T03:17:36.519Z,100309.38
2019-03-18T03:20:06.531Z,100315.01
2019-03-18T03:22:36.037Z,100317.41
2019-03-18T03:25:05.761Z,100317.91
2019-03-18T03:27:35.274Z,100318.89
2019-03-18T03:30:05.528Z,100323.64
2019-03-18T03:32:35.024Z,100326.50
2019-03-18T03:35:04.818Z,100326.98
2019-03-18T03:37:34.276Z,100322.29
2019-03-18T03:40:04.000Z,100312.44
2019-03-18T03:42:33.538Z,100313.52
2019-03-18T03:45:03.037Z,100315.93
2019-03-18T03:47:32.532Z,100330.59
2019-03-18T03:50:02.060Z,100330.83
2019-03-18T03:52:31.608Z,100344.52
2019-03-18T03:55:01.197Z,100344.93
2019-03-18T03:57:30.783Z,100331.85
2019-03-18T04:00:00.707Z,100339.64
2019-03-18T04:02:30.405Z,100346.78
2019-03-18T04:04:59.978Z,100350.58
2019-03-18T04:07:29.554Z,100346.42
2019-03-18T04:09:59.052Z,100355.36
2019-03-18T04:12:28.558Z,100360.92
2019-03-18T04:14:58.053Z,100361.88
2019-03-18T04:17:27.552Z,100367.47
2019-03-18T04:19:57.058Z,100363.45
2019-03-18T04:22:26.565Z,100357.44
2019-03-18T04:24:56.133Z,100352.68
2019-03-18T04:27:25.727Z,100353.05
2019-03-18T04:29:55.214Z,100354.59
2019-03-18T04:32:24.726Z,100372.24
2019-03-18T04:34:54.261Z,100366.58
2019-03-18T04:37:23.787Z,100373.59
2019-03-18T04:39:53.343Z,100385.85
2019-03-18T04:42:22.881Z,100384.16
2019-03-18T04:44:52.390Z,100380.55
2019-03-18T04:47:21.902Z,100383.30
2019-03-18T04:49:51.394Z,100390.91
2019-03-18T04:52:20.940Z,100393.77
2019-03-18T04:54:50.453Z,100400.65
2019-03-18T04:57:19.974Z,100398.15
2019-03-18T04:59:49.526Z,100401.64
2019-03-18T05:02:19.076Z,100395.70
2019-03-18T05:04:48.589Z,100392.66
2019-03-18T05:07:18.108Z,100393.70
2019-03-18T05:09:47.625Z,100395.72
2019-03-18T05:12:17.129Z,100405.23
2019-03-18T05:14:47.244Z,100403.63
2019-03-18T05:17:26.114Z,100405.14
2019-03-18T05:19:47.963Z,100408.31
2019-03-18T05:22:17.476Z,100414.94
2019-03-18T05:24:46.983Z,100414.59
2019-03-18T05:27:16.487Z,100421.61
2019-03-18T05:29:46.018Z,100420.34
2019-03-18T05:32:15.540Z,100427.28
2019-03-18T05:34:45.040Z,100434.89
2019-03-18T05:37:14.557Z,100442.92
2019-03-18T05:39:44.082Z,100450.23
2019-03-18T05:42:14.557Z,100457.45
2019-03-18T05:44:44.134Z,100468.77
2019-03-18T05:47:13.667Z,100461.22
2019-03-18T05:49:43.239Z,100460.50
2019-03-18T05:52:12.823Z,100471.52
2019-03-18T05:54:42.404Z,100467.56
2019-03-18T05:57:11.936Z,100475.93
2019-03-18T05:59:41.462Z,100476.53
2019-03-18T06:02:11.930Z,100477.09
2019-03-18T06:04:41.431Z,100483.12
2019-03-18T06:07:10.923Z,100492.95
2019-03-18T06:09:40.457Z,100495.02
2019-03-18T06:12:09.979Z,100496.56
2019-03-18T06:14:39.455Z,100500.50
2019-03-18T06:17:08.950Z,100505.20
2019-03-18T06:19:38.491Z,100505.31
2019-03-18T06:22:07.983Z,100521.95
2019-03-18T06:24:37.507Z,100515.16
2019-03-18T06:27:07.010Z,100520.22
2019-03-18T06:29:36.522Z,100520.59
2019-03-18T06:32:06.024Z,100510.99
2019-03-18T06:34:35.532Z,100520.69
2019-03-18T06:37:06.019Z,100519.33
2019-03-18T06:39:35.529Z,100531.17
2019-03-18T06:42:05.032Z,100525.84
2019-03-18T06:44:34.535Z,100524.45
2019-03-18T06:47:04.026Z,100526.16
2019-03-18T06:49:33.537Z,100534.64
2019-03-18T06:52:03.058Z,100536.97
2019-03-18T06:54:32.582Z,100545.02
2019-03-18T06:57:02.100Z,100547.45
2019-03-18T06:59:31.607Z,100556.59
2019-03-18T07:02:01.106Z,100550.86
2019-03-18T07:04:30.602Z,100559.13
2019-03-18T07:07:00.216Z,100560.44
2019-03-18T07:09:29.742Z,100558.77
2019-03-18T07:11:59.250Z,100576.00
2019-03-18T07:14:28.770Z,100578.97
2019-03-18T07:16:58.267Z,100578.50
2019-03-18T07:19:27.763Z,100587.75
2019-03-18T07:21:57.257Z,100589.79
2019-03-18T07:24:26.761Z,100589.60
2019-03-18T07:26:56.255Z,100596.77
2019-03-18T07:29:25.772Z,100592.73
2019-03-18T07:31:55.279Z,100597.04
2019-03-18T07:34:24.791Z,100592.00
2019-03-18T07:36:54.336Z,100599.74
2019-03-18T07:39:23.851Z,100606.50
2019-03-18T07:41:53.341Z,100609.36
2019-03-18T07:44:22.843Z,100620.73
2019-03-18T07:46:52.345Z,100620.08
2019-03-18T07:49:21.857Z,100622.59
2019-03-18T07:51:51.356Z,100623.66
2019-03-18T07:54:32.194Z,100629.77
2019-03-18T07:56:52.128Z,100633.11
2019-03-18T07:59:21.678Z,100631.44
2019-03-18T08:01:51.195Z,100633.80
2019-03-18T08:04:20.717Z,100643.33
2019-03-18T08:06:50.230Z,100647.85
2019-03-18T08:09:19.794Z,100646.44
2019-03-18T08:11:49.297Z,100645.44
2019-03-18T08:14:18.869Z,100643.32
2019-03-18T08:16:48.414Z,100658.36
2019-03-18T08:19:17.983Z,100664.25
2019-03-18T08:21:47.527Z,100669.16
2019-03-18T08:24:17.058Z,100660.36
2019-03-18T08:26:46.619Z,100667.35
2019-03-18T08:29:16.168Z,100671.70
2019-03-18T08:31:45.686Z,100663.41
2019-03-18T08:34:15.224Z,100662.84
2019-03-18T08:36:45.641Z,100667.25
2019-03-18T08:39:15.184Z,100667.11
2019-03-18T08:41:44.702Z,100676.26
2019-03-18T08:44:14.249Z,100674.65
2019-03-18T08:46:43.783Z,100677.78
2019-03-18T08:49:13.310Z,100697.77
2019-03-18T08:51:42.830Z,100697.90
2019-03-18T08:54:12.360Z,100697.58
2019-03-18T08:56:41.897Z,100702.59
2019-03-18T08:59:11.429Z,100702.17
2019-03-18T09:01:40.938Z,100712.66
2019-03-18T09:04:10.458Z,100718.44
2019-03-18T09:06:39.970Z,100711.85
2019-03-18T09:09:09.557Z,100732.86
2019-03-18T09:11:39.074Z,100734.17
2019-03-18T09:14:08.574Z,100747.06
2019-03-18T09:16:38.087Z,100747.66
2019-03-18T09:19:09.103Z,100734.50
2019-03-18T09:21:38.896Z,100750.91
2019-03-18T09:24:08.436Z,100745.30
2019-03-18T09:26:37.975Z,100738.56
2019-03-18T09:29:07.482Z,100745.60
2019-03-18T09:31:36.998Z,100751.80
2019-03-18T09:34:06.517Z,100755.50
2019-03-18T09:36:36.041Z,100755.27
2019-03-18T09:39:07.489Z,100755.03
2019-03-18T09:41:37.075Z,100747.37
2019-03-18T09:44:06.579Z,100749.68
2019-03-18T09:46:37.068Z,100749.41
2019-03-18T09:49:06.591Z,100750.41
2019-03-18T09:51:36.107Z,100755.85
2019-03-18T09:54:05.703Z,100758.20
2019-03-18T09:56:35.224Z,100753.91
2019-03-18T09:59:04.792Z,100752.09
2019-03-18T10:01:34.305Z,100762.98
2019-03-18T10:04:03.827Z,100751.47
2019-03-18T10:06:34.407Z,100751.02
2019-03-18T10:09:06.033Z,100749.75
2019-03-18T10:11:35.557Z,100752.73
2019-03-18T10:14:05.128Z,100753.91
2019-03-18T10:16:34.671Z,100772.17
2019-03-18T10:19:04.217Z,100763.81
2019-03-18T10:21:33.716Z,100761.85
2019-03-18T10:24:03.232Z,100767.19
2019-03-18T10:26:32.762Z,100786.55
2019-03-18T10:29:03.285Z,100783.92
2019-03-18T10:31:32.778Z,100787.59
2019-03-18T10:34:02.318Z,100790.44
2019-03-18T10:36:31.848Z,100786.13
2019-03-18T10:39:01.375Z,100791.20
2019-03-18T10:41:30.918Z,100789.01
2019-03-18T10:44:00.446Z,100797.94
2019-03-18T10:46:29.996Z,100795.43
2019-03-18T10:48:59.513Z,100821.78
2019-03-18T10:51:31.844Z,100823.15
2019-03-18T10:54:00.323Z,100835.52
2019-03-18T10:56:29.841Z,100837.75
2019-03-18T10:58:59.347Z,100842.99
2019-03-18T11:01:28.861Z,100844.13
2019-03-18T11:03:58.367Z,100845.31
2019-03-18T11:06:27.873Z,100866.55
2019-03-18T11:08:58.403Z,100886.49
2019-03-18T11:11:27.918Z,100899.97
2019-03-18T11:13:57.439Z,100904.08
2019-03-18T11:16:26.945Z,100923.64
2019-03-18T11:18:56.484Z,100929.68
2019-03-18T11:21:26.029Z,100930.16
2019-03-18T11:23:55.541Z,100932.32
2019-03-18T11:26:25.118Z,100924.98
2019-03-18T11:28:54.635Z,100920.23
2019-03-18T11:31:24.136Z,100885.16
2019-03-18T11:33:53.626Z,100873.16
2019-03-18T11:36:23.130Z,100876.23
2019-03-18T11:38:52.628Z,100876.54
2019-03-18T11:41:22.137Z,100878.77
2019-03-18T11:43:51.641Z,100874.08
2019-03-18T11:46:21.162Z,100891.89
2019-03-18T11:48:50.658Z,100886.22
2019-03-18T11:51:20.174Z,100891.95
2019-03-18T11:53:49.761Z,100896.12
2019-03-18T11:56:19.293Z,100895.09
2019-03-18T11:58:48.806Z,100891.05
2019-03-18T12:01:18.332Z,100886.80
2019-03-18T12:03:47.837Z,100884.27
2019-03-18T12:06:17.439Z,100866.39
2019-03-18T12:08:46.943Z,100860.63
2019-03-18T12:11:16.467Z,100859.73
2019-03-18T12:13:45.984Z,100859.14
2019-03-18T12:16:15.516Z,100868.31
2019-03-18T12:18:45.052Z,100859.27
2019-03-18T12:21:16.005Z,100866.87
2019-03-18T12:23:45.679Z,100867.08
2019-03-18T12:26:15.224Z,100865.09
2019-03-18T12:28:44.755Z,100854.63
2019-03-18T12:31:14.279Z,100846.61
2019-03-18T12:33:43.835Z,100842.41
2019-03-18T12:36:13.479Z,100858.87
2019-03-18T12:38:43.004Z,100879.12
2019-03-18T12:41:12.544Z,100922.20
2019-03-18T12:43:42.075Z,100953.11
2019-03-18T12:46:11.612Z,100955.91
2019-03-18T12:48:41.135Z,100958.16
2019-03-18T12:51:10.657Z,100961.34
2019-03-18T12:53:40.241Z,100952.98
2019-03-18T12:56:09.753Z,100954.47
2019-03-18T12:58:39.338Z,100956.45
2019-03-18T13:01:12.864Z,100963.33
2019-03-18T13:03:40.160Z,100960.92
2019-03-18T13:06:09.666Z,100966.90
2019-03-18T13:08:39.169Z,100953.06
2019-03-18T13:11:08.728Z,100941.70
2019-03-18T13:13:38.247Z,100949.11
2019-03-18T13:16:07.757Z,100943.38
2019-03-18T13:18:37.280Z,100949.45
2019-03-18T13:21:08.222Z,100946.54
2019-03-18T13:23:37.952Z,100946.56
2019-03-18T13:26:07.490Z,100954.38
2019-03-18T13:28:37.015Z,100958.03
2019-03-18T13:31:06.532Z,100960.34
2019-03-18T13:33:36.172Z,100961.14
2019-03-18T13:36:05.713Z,100967.70
2019-03-18T13:38:35.234Z,100966.61
2019-03-18T13:41:04.737Z,100973.72
2019-03-18T13:43:34.247Z,100966.12
2019-03-18T13:46:04.721Z,100967.25
2019-03-18T13:48:34.247Z,100964.84
2019-03-18T13:51:03.770Z,100973.95
2019-03-18T13:53:33.296Z,100978.98
2019-03-18T13:56:02.858Z,100973.35
2019-03-18T13:58:32.410Z,100981.05
2019-03-18T14:01:01.987Z,100987.77
2019-03-18T14:03:31.612Z,100998.42
2019-03-18T14:06:01.124Z,100989.17
2019-03-18T14:08:30.640Z,100999.20
2019-03-18T14:11:00.197Z,100994.05
2019-03-18T14:13:29.800Z,100998.06
2019-03-18T14:15:59.390Z,100994.96
2019-03-18T14:18:29.002Z,101006.22
2019-03-18T14:20:58.622Z,101012.95
2019-03-18T14:23:28.329Z,101017.34
2019-03-18T14:25:57.936Z,101021.66
2019-03-18T14:28:27.523Z,101031.14
2019-03-18T14:30:57.032Z,101027.61
2019-03-18T14:33:26.541Z,101034.80
2019-03-18T14:35:56.153Z,101034.73
2019-03-18T14:38:25.675Z,101034.61
2019-03-18T14:40:55.255Z,101037.41
2019-03-18T14:43:25.832Z,101038.39
2019-03-18T14:45:55.353Z,101041.55
2019-03-18T14:48:24.879Z,101042.33
2019-03-18T14:50:54.388Z,101043.38
2019-03-18T14:53:24.001Z,101045.31
2019-03-18T14:55:53.539Z,101044.73
2019-03-18T14:58:23.065Z,101045.39
2019-03-18T15:00:52.607Z,101056.80
2019-03-18T15:03:22.136Z,101061.43
2019-03-18T15:05:51.641Z,101050.05
2019-03-18T15:08:21.175Z,101059.88
2019-03-18T15:10:50.687Z,101059.22
2019-03-18T15:13:30.335Z,101050.52
2019-03-18T15:15:51.406Z,101061.36
2019-03-18T15:18:20.920Z,101060.44
2019-03-18T15:20:50.440Z,101073.65
2019-03-18T15:23:19.976Z,101084.41
2019-03-18T15:25:49.502Z,101091.73
2019-03-18T15:28:19.039Z,101096.84
2019-03-18T15:30:48.603Z,101101.30
2019-03-18T15:33:18.139Z,101098.16
2019-03-18T15:35:47.631Z,101103.20
2019-03-18T15:38:17.151Z,101101.66
2019-03-18T15:40:46.671Z,101105.66
2019-03-18T15:43:16.202Z,101111.25
2019-03-18T15:45:45.738Z,101110.50
2019-03-18T15:48:15.294Z,101122.59
2019-03-18T15:50:44.826Z,101110.59
2019-03-18T15:53:14.376Z,101114.16
2019-03-18T15:55:44.016Z,101110.66
2019-03-18T15:58:13.600Z,101115.09
2019-03-18T16:00:43.099Z,101116.64
2019-03-18T16:03:12.613Z,101123.73
2019-03-18T16:05:42.198Z,101133.94
2019-03-18T16:08:11.759Z,101137.34
2019-03-18T16:10:41.348Z,101130.11
2019-03-18T16:13:10.872Z,101149.80
2019-03-18T16:15:40.376Z,101164.02
2019-03-18T16:18:09.895Z,101151.89
2019-03-18T16:20:39.466Z,101160.64
2019-03-18T16:23:08.977Z,101169.11
2019-03-18T16:25:38.596Z,101164.23
2019-03-18T16:28:08.106Z,101179.50
2019-03-18T16:30:37.642Z,101195.53
2019-03-18T16:33:07.230Z,101219.11
2019-03-18T16:35:36.760Z,101225.16
2019-03-18T16:38:06.264Z,101229.56
2019-03-18T16:40:35.799Z,101200.00
2019-03-18T16:43:05.338Z,101203.84
2019-03-18T16:45:34.861Z,101215.45
2019-03-18T16:48:04.378Z,101221.47
2019-03-18T16:50:33.959Z,101221.98
2019-03-18T16:53:03.494Z,101256.59
2019-03-18T16:55:33.040Z,101230.37
2019-03-18T16:58:02.561Z,101227.28
2019-03-18T17:00:33.186Z,101225.49
2019-03-18T17:03:02.699Z,101228.11
2019-03-18T17:05:32.225Z,101234.58
2019-03-18T17:08:01.755Z,101231.16
2019-03-18T17:10:31.270Z,101236.70
2019-03-18T17:13:00.778Z,101236.56
2019-03-18T17:15:30.305Z,101239.25
2019-03-18T17:17:59.823Z,101244.44
2019-03-18T17:20:29.389Z,101243.74
2019-03-18T17:22:58.924Z,101248.30
2019-03-18T17:25:28.460Z,101251.55
2019-03-18T17:27:58.007Z,101258.16
2019-03-18T17:30:27.526Z,101266.07
2019-03-18T17:32:57.055Z,101270.75
2019-03-18T17:35:26.559Z,101273.69
2019-03-18T17:37:56.076Z,101270.68
2019-03-18T17:40:25.599Z,101275.33
2019-03-18T17:42:55.105Z,101285.09
2019-03-18T17:45:24.644Z,101283.38
2019-03-18T17:47:54.166Z,101290.50
2019-03-18T17:50:23.789Z,101291.33
2019-03-18T17:53:02.550Z,101299.09
2019-03-18T17:55:25.222Z,101283.42
2019-03-18T17:57:54.746Z,101299.02
2019-03-18T18:00:29.127Z,101304.50
2019-03-18T18:02:58.692Z,101304.17
2019-03-18T18:05:28.220Z,101301.99
2019-03-18T18:07:57.733Z,101309.87
2019-03-18T18:10:27.257Z,101311.33
2019-03-18T18:12:56.854Z,101312.97
2019-03-18T18:15:26.371Z,101319.50
2019-03-18T18:17:55.884Z,101319.86
2019-03-18T18:20:25.478Z,101327.69
2019-03-18T18:22:55.000Z,101328.16
2019-03-18T18:25:24.546Z,101333.19
2019-03-18T18:27:54.938Z,101336.15
2019-03-18T18:30:25.286Z,101326.77
2019-03-18T18:32:54.798Z,101354.20
2019-03-18T18:35:25.003Z,101352.54
2019-03-18T18:37:54.500Z,101355.78
2019-03-18T18:40:24.032Z,101359.50
2019-03-18T18:42:53.533Z,101364.34
2019-03-18T18:45:23.067Z,101367.30
2019-03-18T18:47:52.601Z,101371.83
2019-03-18T18:50:22.125Z,101376.66
2019-03-18T18:52:51.650Z,101375.09
2019-03-18T18:55:21.187Z,101380.72
2019-03-18T18:57:51.721Z,101385.05
2019-03-18T19:00:21.274Z,101382.70
2019-03-18T19:02:50.854Z,101393.19
2019-03-18T19:05:20.492Z,101404.61
2019-03-18T19:07:50.003Z,101404.44
2019-03-18T19:10:19.543Z,101403.59
2019-03-18T19:12:49.094Z,101404.69
2019-03-18T19:15:19.758Z,101399.17
2019-03-18T19:17:49.535Z,101395.44
2019-03-18T19:20:19.058Z,101407.85
2019-03-18T19:22:48.559Z,101411.47
2019-03-18T19:25:18.112Z,101413.67
2019-03-18T19:27:47.631Z,101420.44
2019-03-18T19:30:18.045Z,101422.89
2019-03-18T19:32:48.124Z,101430.37
2019-03-18T19:35:17.647Z,101428.84
2019-03-18T19:37:47.859Z,101438.68
2019-03-18T19:40:17.408Z,101445.58
2019-03-18T19:42:46.942Z,101448.56
2019-03-18T19:45:16.537Z,101470.61
2019-03-18T19:47:46.132Z,101477.66
2019-03-18T19:50:16.825Z,101488.05
2019-03-18T19:52:46.359Z,101487.48
2019-03-18T19:55:16.489Z,101488.19
2019-03-18T19:57:46.010Z,101380.46
2019-03-18T20:00:17.709Z,101497.50
2019-03-18T20:02:47.303Z,101488.56
2019-03-18T20:05:18.941Z,101492.04
2019-03-18T20:07:48.150Z,101487.64
2019-03-18T20:10:17.742Z,101495.07
2019-03-18T20:12:47.280Z,101491.16
2019-03-18T20:15:17.102Z,101490.90
2019-03-18T20:17:46.643Z,101496.84
2019-03-18T20:20:16.234Z,101495.88
2019-03-18T20:22:46.732Z,101492.86
2019-03-18T20:25:17.355Z,101498.72
2019-03-18T20:27:46.883Z,101505.55
2019-03-18T20:30:17.553Z,101502.92
2019-03-18T20:32:47.078Z,101482.95
2019-03-18T20:35:16.616Z,101520.59
2019-03-18T20:37:47.206Z,101522.73
2019-03-18T20:40:16.817Z,101528.77
2019-03-18T20:42:46.510Z,101535.90
2019-03-18T20:45:16.090Z,101532.96
2019-03-18T20:47:45.643Z,101549.69
2019-03-18T20:50:15.749Z,101551.83
2019-03-18T20:52:45.269Z,101554.11
2019-03-18T20:55:14.925Z,101559.80
2019-03-18T20:57:45.511Z,101556.59
2019-03-18T21:00:15.840Z,101572.97
2019-03-18T21:02:45.738Z,101571.03
2019-03-18T21:05:15.309Z,101535.77
2019-03-18T21:07:44.827Z,101578.67
2019-03-18T21:10:15.507Z,101582.28
2019-03-18T21:12:45.100Z,101570.70
2019-03-18T21:15:14.714Z,101569.03
2019-03-18T21:17:44.328Z,101568.04
2019-03-18T21:20:14.784Z,101571.53
2019-03-18T21:22:44.291Z,101574.92
2019-03-18T21:25:13.963Z,101571.84
2019-03-18T21:27:43.493Z,101576.05
2019-03-18T21:30:13.358Z,101576.50
2019-03-18T21:32:43.855Z,101578.34
2019-03-18T21:35:14.011Z,101581.94
2019-03-18T21:37:43.529Z,101579.30
2019-03-18T21:40:13.496Z,101583.63
2019-03-18T21:42:43.038Z,101583.16
2019-03-18T21:45:14.619Z,101585.21
2019-03-18T21:47:44.129Z,101593.13
2019-03-18T21:50:14.152Z,101589.02
2019-03-18T21:52:43.748Z,101592.92
2019-03-18T21:55:13.619Z,101588.24
2019-03-18T21:57:43.222Z,101589.57
2019-03-18T22:00:14.198Z,101595.77
2019-03-18T22:02:43.731Z,101599.42
2019-03-18T22:05:13.387Z,101604.81
2019-03-18T22:07:42.884Z,101602.42
2019-03-18T22:10:12.808Z,101604.33
2019-03-18T22:12:42.330Z,101605.91
2019-03-18T22:15:11.967Z,101610.11
2019-03-18T22:17:41.759Z,101617.31
2019-03-18T22:20:12.832Z,101557.83
2019-03-18T22:22:42.344Z,101609.23
2019-03-18T22:25:12.181Z,101617.48
2019-03-18T22:27:41.738Z,101620.78
2019-03-18T22:30:11.597Z,101620.00
2019-03-18T22:32:42.281Z,101625.41
2019-03-18T22:35:11.871Z,101628.09
2019-03-18T22:37:41.391Z,101622.86
2019-03-18T22:40:11.061Z,101625.70
2019-03-18T22:42:40.562Z,101629.67
2019-03-18T22:45:10.453Z,101631.00
2019-03-18T22:47:40.349Z,101634.27
2019-03-18T22:50:10.588Z,101628.98
2019-03-18T22:52:40.117Z,101636.98
2019-03-18T22:55:10.671Z,101634.59
2019-03-18T22:57:40.269Z,101632.37
2019-03-18T23:00:21.420Z,101638.22
2019-03-18T23:02:52.583Z,101635.55
2019-03-18T23:05:23.402Z,101636.59
2019-03-18T23:07:52.905Z,101631.11
2019-03-18T23:10:22.412Z,101637.11
2019-03-18T23:12:51.917Z,101641.71
2019-03-18T23:15:21.413Z,101654.06
2019-03-18T23:17:50.941Z,101649.23
2019-03-18T23:20:20.514Z,101656.05
2019-03-18T23:22:50.037Z,101654.55
2019-03-18T23:25:19.543Z,101653.73
2019-03-18T23:27:49.063Z,101659.14
2019-03-18T23:30:18.569Z,101663.72
2019-03-18T23:32:48.262Z,101657.39
2019-03-18T23:35:17.853Z,101649.94
2019-03-18T23:37:47.402Z,101649.42
2019-03-18T23:40:16.972Z,101657.85
2019-03-18T23:42:46.490Z,101654.13
2019-03-18T23:45:15.992Z,101653.36
2019-03-18T23:47:45.531Z,101667.42
2019-03-18T23:50:15.136Z,101661.67
2019-03-18T23:52:44.683Z,101671.23
2019-03-18T23:55:19.431Z,101665.19
2019-03-18T23:57:45.566Z,101664.03
